createdAt,value
2018-09-21T00:00:03.803Z,24.00
2018-09-21T00:02:35.710Z,24.00
2018-09-21T00:05:06.062Z,23.98
2018-09-21T00:07:37.741Z,23.95
2018-09-21T00:10:09.309Z,23.92
2018-09-21T00:12:38.934Z,23.90
2018-09-21T00:15:08.740Z,23.90
2018-09-21T00:17:38.454Z,23.90
2018-09-21T00:20:08.128Z,23.90
2018-09-21T00:22:37.638Z,23.92
2018-09-21T00:25:07.150Z,23.93
2018-09-21T00:27:36.714Z,23.92
2018-09-21T00:30:07.374Z,23.92
2018-09-21T00:32:38.151Z,23.93
2018-09-21T00:35:09.765Z,23.93
2018-09-21T00:37:40.805Z,23.96
2018-09-21T00:40:12.722Z,23.95
2018-09-21T00:42:42.146Z,23.97
2018-09-21T00:45:14.646Z,23.99
2018-09-21T00:47:44.507Z,23.96
2018-09-21T00:50:14.093Z,23.93
2018-09-21T00:52:45.669Z,23.93
2018-09-21T00:55:15.439Z,23.93
2018-09-21T00:57:45.373Z,23.90
2018-09-21T01:00:16.204Z,23.88
2018-09-21T01:02:46.979Z,23.86
2018-09-21T01:05:17.556Z,23.84
2018-09-21T01:07:47.322Z,23.83
2018-09-21T01:10:19.149Z,23.82
2018-09-21T01:12:51.797Z,23.81
2018-09-21T01:15:21.507Z,23.80
2018-09-21T01:17:51.434Z,23.77
2018-09-21T01:20:21.235Z,23.77
2018-09-21T01:22:57.189Z,23.75
2018-09-21T01:25:26.839Z,23.72
2018-09-21T01:28:00.458Z,23.71
2018-09-21T01:30:30.421Z,23.72
2018-09-21T01:32:59.994Z,23.70
2018-09-21T01:35:29.737Z,23.71
2018-09-21T01:37:59.413Z,23.67
2018-09-21T01:40:29.978Z,23.66
2018-09-21T01:43:03.189Z,23.63
2018-09-21T01:45:33.391Z,23.62
2018-09-21T01:48:03.913Z,23.57
2018-09-21T01:50:34.480Z,23.54
2018-09-21T01:53:06.204Z,23.56
2018-09-21T01:55:36.938Z,23.56
2018-09-21T01:58:08.004Z,23.53
2018-09-21T02:00:40.041Z,23.53
2018-09-21T02:03:12.953Z,23.55
2018-09-21T02:05:43.701Z,23.57
2018-09-21T02:08:14.303Z,23.56
2018-09-21T02:10:44.340Z,23.57
2018-09-21T02:13:14.192Z,23.58
2018-09-21T02:15:44.474Z,23.56
2018-09-21T02:18:14.272Z,23.56
2018-09-21T02:20:44.093Z,23.58
2018-09-21T02:23:14.003Z,23.59
2018-09-21T02:25:43.711Z,23.58
2018-09-21T02:28:13.383Z,23.58
2018-09-21T02:30:44.174Z,23.55
2018-09-21T02:33:14.030Z,23.54
2018-09-21T02:35:46.611Z,23.54
2018-09-21T02:38:16.590Z,23.52
2018-09-21T02:40:47.185Z,23.52
2018-09-21T02:43:19.868Z,23.51
2018-09-21T02:45:50.945Z,23.53
2018-09-21T02:48:25.337Z,23.52
2018-09-21T02:50:55.137Z,23.50
2018-09-21T02:53:26.581Z,23.47
2018-09-21T02:55:57.461Z,23.45
2018-09-21T02:58:27.382Z,23.44
2018-09-21T03:00:59.258Z,23.43
2018-09-21T03:03:28.955Z,23.43
2018-09-21T03:06:00.498Z,23.43
2018-09-21T03:08:30.489Z,23.40
2018-09-21T03:11:01.723Z,23.41
2018-09-21T03:13:32.608Z,23.40
2018-09-21T03:16:17.976Z,23.39
2018-09-21T03:18:47.958Z,23.36
2018-09-21T03:21:19.402Z,23.37
2018-09-21T03:23:49.218Z,23.38
2018-09-21T03:26:21.422Z,23.42
2018-09-21T03:28:51.354Z,23.41
2018-09-21T03:31:21.387Z,23.44
2018-09-21T03:33:51.372Z,23.46
2018-09-21T03:36:21.299Z,23.47
2018-09-21T03:38:51.858Z,23.47
2018-09-21T03:41:21.693Z,23.47
2018-09-21T03:43:51.401Z,23.47
2018-09-21T03:46:24.633Z,23.48
2018-09-21T03:48:58.135Z,23.48
2018-09-21T03:51:28.496Z,23.48
2018-09-21T03:53:59.175Z,23.51
2018-09-21T03:56:29.029Z,23.53
2018-09-21T03:59:00.933Z,23.53
2018-09-21T04:01:31.809Z,23.54
2018-09-21T04:04:03.130Z,23.53
2018-09-21T04:06:33.705Z,23.52
2018-09-21T04:09:06.511Z,23.53
2018-09-21T04:11:38.494Z,23.49
2018-09-21T04:14:10.449Z,23.46
2018-09-21T04:16:42.313Z,23.46
2018-09-21T04:19:12.737Z,23.44
2018-09-21T04:21:43.230Z,23.43
2018-09-21T04:24:13.182Z,23.40
2018-09-21T04:26:45.100Z,23.38
2018-09-21T04:29:16.090Z,23.35
2018-09-21T04:31:47.695Z,23.31
2018-09-21T04:34:18.110Z,23.31
2018-09-21T04:36:52.540Z,23.32
2018-09-21T04:39:23.157Z,23.29
2018-09-21T04:41:53.027Z,23.28
2018-09-21T04:44:25.725Z,23.28
2018-09-21T04:47:03.673Z,23.27
2018-09-21T04:49:34.757Z,23.23
2018-09-21T04:52:05.063Z,23.22
2018-09-21T04:54:35.461Z,23.19
2018-09-21T04:57:06.280Z,23.19
2018-09-21T04:59:37.265Z,23.14
2018-09-21T05:02:08.716Z,23.15
2018-09-21T05:04:43.055Z,23.20
2018-09-21T05:07:13.590Z,23.24
2018-09-21T05:09:48.184Z,23.25
2018-09-21T05:12:24.063Z,23.28
2018-09-21T05:14:56.657Z,23.29
2018-09-21T05:17:32.337Z,23.36
2018-09-21T05:20:05.538Z,23.38
2018-09-21T05:22:38.422Z,23.43
2018-09-21T05:25:15.681Z,23.47
2018-09-21T05:27:51.782Z,23.53
2018-09-21T05:30:24.231Z,23.57
2018-09-21T05:32:56.015Z,23.63
2018-09-21T05:35:25.656Z,23.66
2018-09-21T05:37:55.389Z,23.71
2018-09-21T05:40:27.844Z,23.75
2018-09-21T05:42:58.335Z,23.80
2018-09-21T05:45:29.885Z,23.92
2018-09-21T05:48:01.414Z,23.99
2018-09-21T05:50:36.657Z,24.09
2018-09-21T05:53:08.083Z,24.16
2018-09-21T05:55:37.840Z,24.23
2018-09-21T05:58:09.656Z,24.28
2018-09-21T06:00:39.929Z,24.29
2018-09-21T06:03:10.382Z,24.33
2018-09-21T06:05:40.933Z,24.38
2018-09-21T06:08:10.745Z,24.45
2018-09-21T06:10:42.756Z,24.57
2018-09-21T06:13:13.542Z,24.64
2018-09-21T06:15:43.336Z,24.80
2018-09-21T06:18:16.693Z,24.84
2018-09-21T06:20:50.193Z,24.91
2018-09-21T06:23:21.473Z,25.01
2018-09-21T06:25:51.969Z,25.09
2018-09-21T06:28:23.063Z,25.17
2018-09-21T06:30:55.070Z,25.20
2018-09-21T06:33:27.109Z,25.29
2018-09-21T06:35:57.030Z,25.39
2018-09-21T06:38:29.663Z,25.52
2018-09-21T06:41:00.895Z,25.56
2018-09-21T06:46:18.362Z,25.69
2018-09-21T06:48:53.167Z,25.74
2018-09-21T06:51:22.814Z,25.72
2018-09-21T06:53:53.439Z,25.76
2018-09-21T06:56:24.606Z,25.75
2018-09-21T06:58:55.847Z,25.76
2018-09-21T07:01:25.686Z,25.74
2018-09-21T07:03:55.366Z,25.73
2018-09-21T07:06:25.610Z,25.72
2018-09-21T07:08:56.258Z,25.79
2018-09-21T07:11:25.859Z,25.80
2018-09-21T07:13:55.816Z,25.81
2018-09-21T07:16:25.545Z,25.81
2018-09-21T07:18:56.740Z,25.88
2018-09-21T07:21:27.357Z,25.93
2018-09-21T07:23:57.247Z,25.95
2018-09-21T07:26:29.946Z,26.11
2018-09-21T07:29:02.429Z,26.27
2018-09-21T07:31:33.975Z,26.37
2018-09-21T07:34:03.792Z,26.50
2018-09-21T07:36:33.493Z,26.52
2018-09-21T07:39:04.737Z,26.56
2018-09-21T07:41:34.309Z,26.70
2018-09-21T07:44:04.714Z,26.90
2018-09-21T07:46:34.489Z,27.12
2018-09-21T07:49:05.817Z,27.32
2018-09-21T07:51:35.744Z,27.42
2018-09-21T07:54:05.662Z,27.37
2018-09-21T07:56:36.840Z,27.36
2018-09-21T07:59:09.116Z,27.46
2018-09-21T08:01:38.741Z,27.64
2018-09-21T08:04:08.966Z,27.73
2018-09-21T08:06:39.509Z,27.93
2018-09-21T08:09:10.872Z,28.03
2018-09-21T08:11:40.374Z,28.34
2018-09-21T08:14:10.802Z,28.56
2018-09-21T08:16:44.963Z,28.72
2018-09-21T08:19:14.702Z,28.78
2018-09-21T08:21:44.576Z,28.75
2018-09-21T08:24:14.057Z,28.77
2018-09-21T08:26:44.107Z,28.86
2018-09-21T08:29:13.988Z,28.91
2018-09-21T08:31:44.885Z,28.97
2018-09-21T08:34:14.476Z,29.00
2018-09-21T08:36:44.248Z,28.95
2018-09-21T08:39:15.158Z,29.05
2018-09-21T08:41:46.234Z,29.23
2018-09-21T08:44:17.152Z,29.23
2018-09-21T08:46:47.174Z,29.27
2018-09-21T08:49:20.039Z,29.31
2018-09-21T08:51:50.398Z,29.41
2018-09-21T08:54:21.435Z,29.49
2018-09-21T08:56:51.364Z,29.60
2018-09-21T08:59:21.186Z,29.67
2018-09-21T09:01:52.065Z,29.71
2018-09-21T09:04:23.014Z,29.75
2018-09-21T09:06:52.727Z,29.87
2018-09-21T09:09:28.237Z,30.08
2018-09-21T09:11:58.664Z,30.16
2018-09-21T09:14:28.533Z,30.31
2018-09-21T09:17:00.593Z,30.48
2018-09-21T09:19:34.704Z,30.54
2018-09-21T09:22:06.140Z,30.70
2018-09-21T09:24:36.113Z,30.89
2018-09-21T09:27:06.908Z,31.02
2018-09-21T09:29:37.884Z,31.02
2018-09-21T09:32:07.883Z,31.09
2018-09-21T09:34:39.263Z,30.97
2018-09-21T09:37:09.238Z,30.83
2018-09-21T09:39:40.246Z,30.71
2018-09-21T09:42:16.560Z,30.66
2018-09-21T09:44:47.275Z,30.63
2018-09-21T09:47:17.368Z,30.74
2018-09-21T09:49:47.211Z,30.86
2018-09-21T09:52:17.206Z,30.85
2018-09-21T09:54:47.214Z,30.76
2018-09-21T09:57:17.222Z,30.66
2018-09-21T09:59:47.163Z,30.64
2018-09-21T10:02:16.953Z,30.63
2018-09-21T10:04:46.800Z,30.86
2018-09-21T10:07:16.447Z,31.14
2018-09-21T10:09:46.099Z,31.32
2018-09-21T10:12:16.328Z,31.25
2018-09-21T10:14:45.984Z,31.38
2018-09-21T10:17:18.589Z,31.44
2018-09-21T10:19:48.232Z,31.53
2018-09-21T10:22:19.828Z,31.72
2018-09-21T10:24:49.526Z,31.97
2018-09-21T10:27:19.419Z,32.38
2018-09-21T10:29:49.094Z,32.46
2018-09-21T10:32:19.376Z,32.38
2018-09-21T10:34:50.288Z,32.38
2018-09-21T10:37:22.858Z,32.50
2018-09-21T10:39:53.085Z,32.40
2018-09-21T10:42:23.881Z,32.26
2018-09-21T10:44:53.608Z,32.30
2018-09-21T10:47:27.395Z,32.33
2018-09-21T10:50:00.509Z,32.20
2018-09-21T10:52:30.951Z,32.02
2018-09-21T10:55:01.749Z,31.78
2018-09-21T10:57:31.913Z,31.77
2018-09-21T11:00:01.784Z,31.88
2018-09-21T11:02:31.625Z,31.94
2018-09-21T11:05:08.950Z,32.22
2018-09-21T11:07:42.072Z,32.20
2018-09-21T11:10:12.085Z,31.97
2018-09-21T11:12:41.861Z,31.78
2018-09-21T11:15:11.632Z,31.57
2018-09-21T11:17:41.537Z,31.43
2018-09-21T11:20:11.349Z,31.45
2018-09-21T11:22:44.645Z,31.64
2018-09-21T11:25:15.016Z,31.88
2018-09-21T11:27:44.781Z,32.02
2018-09-21T11:30:15.627Z,31.94
2018-09-21T11:32:45.438Z,31.83
2018-09-21T11:35:15.256Z,31.60
2018-09-21T11:37:45.032Z,31.55
2018-09-21T11:40:15.052Z,31.57
2018-09-21T11:42:45.400Z,31.57
2018-09-21T11:45:17.159Z,31.52
2018-09-21T11:47:47.623Z,31.44
2018-09-21T11:50:17.243Z,31.39
2018-09-21T11:52:47.121Z,31.24
2018-09-21T11:55:23.541Z,31.15
2018-09-21T11:57:54.518Z,31.05
2018-09-21T12:00:25.389Z,31.02
2018-09-21T12:02:58.687Z,31.02
2018-09-21T12:05:28.317Z,31.01
2018-09-21T12:07:58.084Z,30.97
2018-09-21T12:10:29.604Z,30.86
2018-09-21T12:13:03.310Z,30.85
2018-09-21T12:15:33.103Z,30.87
2018-09-21T12:18:04.389Z,30.89
2018-09-21T12:20:34.260Z,30.86
2018-09-21T12:23:04.289Z,30.88
2018-09-21T12:25:34.615Z,30.83
2018-09-21T12:28:04.473Z,30.78
2018-09-21T12:30:37.807Z,30.73
2018-09-21T12:33:14.240Z,30.70
2018-09-21T12:35:44.158Z,30.66
2018-09-21T12:38:14.000Z,30.68
2018-09-21T12:40:44.809Z,30.66
2018-09-21T12:43:15.223Z,30.64
2018-09-21T12:45:44.871Z,30.70
2018-09-21T12:48:14.470Z,30.66
2018-09-21T12:50:44.068Z,30.65
2018-09-21T12:53:13.686Z,30.75
2018-09-21T12:55:43.418Z,30.92
2018-09-21T12:58:13.257Z,31.06
2018-09-21T13:00:48.042Z,31.15
2018-09-21T13:03:17.980Z,31.12
2018-09-21T13:05:50.734Z,31.00
2018-09-21T13:08:20.511Z,30.93
2018-09-21T13:10:50.739Z,31.02
2018-09-21T13:13:20.544Z,31.02
2018-09-21T13:15:52.859Z,31.04
2018-09-21T13:18:24.278Z,31.14
2018-09-21T13:20:57.767Z,31.20
2018-09-21T13:23:27.592Z,31.24
2018-09-21T13:25:57.801Z,31.25
2018-09-21T13:28:28.740Z,31.31
2018-09-21T13:31:00.953Z,31.31
2018-09-21T13:33:33.424Z,31.43
2018-09-21T13:36:04.159Z,31.50
2018-09-21T13:38:34.267Z,31.44
2018-09-21T13:41:07.317Z,31.43
2018-09-21T13:43:37.339Z,31.41
2018-09-21T13:46:08.117Z,31.40
2018-09-21T13:48:38.246Z,31.33
2018-09-21T13:51:10.766Z,31.28
2018-09-21T13:53:40.480Z,31.18
2018-09-21T13:56:10.216Z,31.17
2018-09-21T13:58:41.130Z,31.19
2018-09-21T14:01:21.261Z,31.17
2018-09-21T14:04:32.916Z,31.11
2018-09-21T14:07:07.767Z,30.80
2018-09-21T14:09:39.288Z,30.73
2018-09-21T14:12:09.919Z,30.66
2018-09-21T14:14:40.994Z,30.58
2018-09-21T14:17:11.301Z,30.48
2018-09-21T14:19:46.628Z,30.40
2018-09-21T14:22:19.022Z,30.30
2018-09-21T14:24:49.012Z,30.16
2018-09-21T14:27:20.569Z,30.10
2018-09-21T14:29:50.707Z,30.02
2018-09-21T14:32:27.256Z,29.94
2018-09-21T14:34:57.063Z,29.86
2018-09-21T14:37:34.173Z,29.78
2018-09-21T14:40:04.582Z,29.62
2018-09-21T14:42:41.972Z,29.42
2018-09-21T14:45:12.448Z,29.26
2018-09-21T14:47:42.460Z,29.03
2018-09-21T14:50:15.208Z,28.92
2018-09-21T14:52:45.076Z,28.89
2018-09-21T14:55:15.129Z,28.85
2018-09-21T14:57:45.032Z,28.90
2018-09-21T15:00:14.921Z,28.94
2018-09-21T15:02:45.370Z,28.98
2018-09-21T15:05:15.187Z,28.92
2018-09-21T15:07:44.965Z,28.60
2018-09-21T15:10:15.439Z,28.29
2018-09-21T15:12:45.308Z,27.79
2018-09-21T15:15:15.257Z,27.27
2018-09-21T15:17:45.253Z,26.70
2018-09-21T15:20:15.437Z,26.17
2018-09-21T15:22:45.099Z,25.70
2018-09-21T15:25:15.635Z,24.67
2018-09-21T15:27:45.239Z,23.34
2018-09-21T15:30:18.423Z,22.83
2018-09-21T15:32:48.404Z,22.58
2018-09-21T15:35:18.009Z,22.39
2018-09-21T15:37:47.564Z,22.25
2018-09-21T15:40:17.274Z,22.20
2018-09-21T15:42:47.029Z,22.24
2018-09-21T15:45:17.127Z,22.19
2018-09-21T15:47:47.516Z,22.21
2018-09-21T15:50:19.686Z,22.34
2018-09-21T15:52:49.872Z,22.31
2018-09-21T15:55:19.767Z,22.25
2018-09-21T15:57:50.472Z,22.10
2018-09-21T16:00:20.305Z,22.05
2018-09-21T16:02:50.105Z,22.02
2018-09-21T16:05:20.693Z,21.93
2018-09-21T16:07:50.625Z,21.73
2018-09-21T16:10:20.292Z,21.53
2018-09-21T16:12:50.118Z,21.26
2018-09-21T16:15:19.900Z,21.16
2018-09-21T16:17:49.505Z,21.04
2018-09-21T16:20:19.149Z,20.92
2018-09-21T16:22:49.538Z,20.88
2018-09-21T16:25:20.242Z,20.77
2018-09-21T16:27:49.761Z,20.80
2018-09-21T16:30:19.396Z,20.77
2018-09-21T16:32:49.083Z,20.76
2018-09-21T16:35:18.430Z,20.75
2018-09-21T16:37:47.952Z,20.77
2018-09-21T16:40:17.272Z,20.83
2018-09-21T16:42:46.898Z,20.90
2018-09-21T16:45:16.572Z,20.89
2018-09-21T16:47:46.920Z,20.87
2018-09-21T16:50:17.461Z,20.75
2018-09-21T16:52:47.346Z,20.75
2018-09-21T16:55:17.061Z,20.73
2018-09-21T16:57:46.645Z,20.54
2018-09-21T17:00:16.675Z,20.37
2018-09-21T17:02:46.771Z,20.38
2018-09-21T17:05:16.631Z,20.38
2018-09-21T17:07:46.969Z,20.31
2018-09-21T17:10:18.541Z,20.12
2018-09-21T17:12:48.477Z,19.96
2018-09-21T17:15:19.335Z,19.83
2018-09-21T17:17:49.051Z,19.81
2018-09-21T17:20:23.953Z,19.74
2018-09-21T17:22:53.647Z,19.62
2018-09-21T17:25:23.948Z,19.62
2018-09-21T17:27:55.180Z,19.53
2018-09-21T17:30:32.521Z,19.44
2018-09-21T17:33:03.288Z,19.48
2018-09-21T17:35:32.939Z,19.49
2018-09-21T17:38:02.603Z,19.45
2018-09-21T17:40:34.373Z,19.47
2018-09-21T17:43:04.123Z,19.42
2018-09-21T17:45:34.033Z,19.28
2018-09-21T17:48:03.763Z,19.20
2018-09-21T17:50:33.673Z,19.13
2018-09-21T17:53:03.471Z,19.10
2018-09-21T17:55:33.159Z,19.05
2018-09-21T17:58:02.643Z,19.06
2018-09-21T18:00:32.308Z,19.03
2018-09-21T18:03:02.089Z,19.02
2018-09-21T18:05:34.597Z,19.06
2018-09-21T18:08:05.150Z,19.07
2018-09-21T18:10:34.867Z,18.96
2018-09-21T18:13:06.347Z,18.87
2018-09-21T18:15:42.134Z,18.85
2018-09-21T18:18:13.245Z,18.81
2018-09-21T18:20:42.826Z,18.81
2018-09-21T18:23:12.542Z,18.77
2018-09-21T18:25:43.009Z,18.78
2018-09-21T18:28:12.843Z,18.77
2018-09-21T18:30:44.518Z,18.66
2018-09-21T18:33:14.448Z,18.62
2018-09-21T18:35:44.266Z,18.66
2018-09-21T18:38:14.191Z,18.70
2018-09-21T18:40:43.953Z,18.71
2018-09-21T18:43:21.827Z,18.66
2018-09-21T18:45:51.691Z,18.59
2018-09-21T18:48:22.162Z,18.52
2018-09-21T18:50:51.686Z,18.41
2018-09-21T18:53:23.557Z,18.38
2018-09-21T18:55:53.417Z,18.36
2018-09-21T18:58:23.269Z,18.28
2018-09-21T19:00:52.780Z,18.20
2018-09-21T19:03:23.107Z,18.12
2018-09-21T19:05:55.580Z,18.06
2018-09-21T19:08:25.418Z,18.02
2018-09-21T19:10:59.573Z,18.01
2018-09-21T19:13:29.823Z,18.03
2018-09-21T19:16:03.908Z,18.04
2018-09-21T19:18:37.961Z,17.97
2018-09-21T19:21:10.326Z,17.93
2018-09-21T19:23:40.678Z,17.96
2018-09-21T19:26:15.309Z,18.02
2018-09-21T19:31:35.442Z,18.11
2018-09-21T19:34:06.344Z,18.14
2018-09-21T19:36:37.743Z,18.20
2018-09-21T19:39:12.537Z,18.20
2018-09-21T19:41:42.679Z,18.23
2018-09-21T19:44:13.487Z,18.29
2018-09-21T19:46:45.087Z,18.30
2018-09-21T19:49:15.591Z,18.31
2018-09-21T19:51:45.982Z,18.36
2018-09-21T19:54:16.180Z,18.35
2018-09-21T19:56:52.435Z,18.33
2018-09-21T19:59:24.431Z,18.25
2018-09-21T20:01:54.960Z,18.26
2018-09-21T20:04:24.684Z,18.17
2018-09-21T20:06:54.611Z,18.17
2018-09-21T20:09:24.308Z,18.17
2018-09-21T20:12:02.166Z,18.22
2018-09-21T20:14:31.986Z,18.25
2018-09-21T20:17:02.187Z,18.30
2018-09-21T20:19:35.076Z,18.31
2018-09-21T20:22:08.325Z,18.31
2018-09-21T20:24:38.847Z,18.33
2018-09-21T20:27:11.316Z,18.33
2018-09-21T20:29:41.199Z,18.26
2018-09-21T20:32:15.894Z,18.19
2018-09-21T20:34:45.388Z,18.17
2018-09-21T20:37:14.919Z,18.17
2018-09-21T20:39:44.617Z,18.18
2018-09-21T20:42:17.191Z,18.14
2018-09-21T20:44:47.075Z,18.12
2018-09-21T20:47:17.652Z,18.15
2018-09-21T20:49:47.706Z,18.13
2018-09-21T20:52:20.903Z,18.12
2018-09-21T20:54:54.014Z,18.17
2018-09-21T20:57:23.895Z,18.17
2018-09-21T20:59:54.205Z,18.18
2018-09-21T21:02:29.376Z,18.20
2018-09-21T21:04:58.976Z,18.12
2018-09-21T21:07:32.363Z,18.01
2018-09-21T21:10:01.894Z,17.90
2018-09-21T21:12:32.367Z,17.87
2018-09-21T21:15:02.000Z,17.88
2018-09-21T21:17:31.649Z,17.88
2018-09-21T21:20:02.637Z,17.85
2018-09-21T21:22:33.274Z,17.83
2018-09-21T21:25:04.076Z,17.84
2018-09-21T21:27:38.895Z,17.82
2018-09-21T21:30:09.610Z,17.78
2018-09-21T21:32:40.320Z,17.76
2018-09-21T21:35:09.951Z,17.68
2018-09-21T21:37:40.020Z,17.62
2018-09-21T21:40:09.669Z,17.64
2018-09-21T21:42:39.431Z,17.62
2018-09-21T21:45:10.395Z,17.58
2018-09-21T21:47:40.173Z,17.54
2018-09-21T21:50:09.907Z,17.49
2018-09-21T21:52:40.589Z,17.43
2018-09-21T21:55:10.360Z,17.41
2018-09-21T21:57:44.409Z,17.41
2018-09-21T22:00:14.299Z,17.41
2018-09-21T22:02:49.900Z,17.42
2018-09-21T22:05:22.925Z,17.38
2018-09-21T22:07:55.834Z,17.38
2018-09-21T22:10:26.397Z,17.34
2018-09-21T22:13:01.899Z,17.30
2018-09-21T22:15:32.773Z,17.20
2018-09-21T22:18:04.127Z,17.15
2018-09-21T22:20:45.280Z,17.12
2018-09-21T22:23:17.432Z,17.02
2018-09-21T22:25:57.382Z,16.96
2018-09-21T22:28:32.722Z,16.92
2018-09-21T22:31:03.296Z,16.91
2018-09-21T22:33:35.741Z,16.89
2018-09-21T22:36:06.590Z,16.86
2018-09-21T22:38:37.445Z,16.82
2018-09-21T22:41:07.802Z,16.76
2018-09-21T22:43:37.408Z,16.72
2018-09-21T22:46:09.781Z,16.70
2018-09-21T22:48:41.879Z,16.71
2018-09-21T22:51:11.670Z,16.66
2018-09-21T22:53:41.555Z,16.67
2018-09-21T22:56:11.284Z,16.66
2018-09-21T22:58:41.036Z,16.68
2018-09-21T23:01:14.881Z,16.66
2018-09-21T23:03:44.748Z,16.62
2018-09-21T23:06:15.137Z,16.56
2018-09-21T23:08:45.151Z,16.52
2018-09-21T23:11:15.139Z,16.52
2018-09-21T23:13:44.859Z,16.48
2018-09-21T23:16:14.434Z,16.46
2018-09-21T23:18:45.387Z,16.48
2018-09-21T23:21:15.061Z,16.49
2018-09-21T23:23:45.215Z,16.48
2018-09-21T23:26:15.643Z,16.47
2018-09-21T23:28:45.348Z,16.48
2018-09-21T23:31:14.994Z,16.47
2018-09-21T23:33:45.529Z,16.42
2018-09-21T23:36:15.450Z,16.44
2018-09-21T23:38:45.195Z,16.45
2018-09-21T23:41:15.799Z,16.45
2018-09-21T23:43:48.021Z,16.43
2018-09-21T23:46:17.835Z,16.41
2018-09-21T23:48:47.880Z,16.38
2018-09-21T23:51:17.385Z,16.39
2018-09-21T23:53:46.793Z,16.37
2018-09-21T23:56:16.194Z,16.34
2018-09-21T23:58:45.866Z,16.34
